Time;durP1;ratioP1;P1;durP2;ratioP2;P2;SDS_P1;SDS_P2;PMS_P1;PMS_P2;Temp;Humidity;BMP_temperature;BMP_pressure;BME280_temperature;BME280_humidity;BME280_pressure;Samples;Min_cycle;Max_cycle;Signal;HPM_P1;HPM_P2
2022/03/20 00:01:33;;;;;;;45.52;21.05;;;;;;;0.11;47.09;102787.64;2140907;81;21536;-77
2022/03/20 00:04:34;;;;;;;;;;;;;;;0.12;47.05;102793.30;2142196;81;21304;-79
2022/03/20 00:07:35;;;;;;;45.67;20.72;;;;;;;0.16;47.08;102791.02;2145826;81;20141;-80
2022/03/20 00:10:42;;;;;;;37.23;18.48;;;;;;;0.15;47.21;102794.53;2149614;81;21069;-79
2022/03/20 00:13:44;;;;;;;41.63;20.77;;;;;;;0.15;47.09;102786.25;2143651;81;21493;-76
2022/03/20 00:16:45;;;;;;;41.45;20.50;;;;;;;0.19;47.15;102787.03;2146707;81;21033;-80
2022/03/20 00:19:46;;;;;;;40.38;19.12;;;;;;;0.18;47.10;102785.33;2149367;81;20978;-79
2022/03/20 00:22:47;;;;;;;41.10;19.90;;;;;;;0.19;47.33;102781.80;2144379;81;20951;-78
2022/03/20 00:25:49;;;;;;;50.95;22.13;;;;;;;0.20;47.49;102773.95;2142944;81;20999;-76
2022/03/20 00:28:50;;;;;;;42.45;22.22;;;;;;;0.22;47.53;102775.20;2145915;81;20990;-77
2022/03/20 00:31:53;;;;;;;42.15;21.35;;;;;;;0.16;47.46;102778.81;2140405;81;21051;-79
2022/03/20 00:34:59;;;;;;;39.95;20.02;;;;;;;0.06;47.46;102779.05;2149531;81;20983;-80
2022/03/20 00:37:58;;;;;;;49.35;22.62;;;;;;;-0.02;47.63;102775.33;2141645;80;21034;-81
2022/03/20 00:41:00;;;;;;;43.02;21.10;;;;;;;-0.12;47.85;102770.73;2141287;81;21052;-80
2022/03/20 00:44:02;;;;;;;41.18;21.75;;;;;;;-0.21;48.02;102760.95;2145920;81;21038;-79
2022/03/20 00:47:04;;;;;;;41.55;22.15;;;;;;;-0.30;48.13;102768.53;2146371;81;21053;-80
2022/03/20 00:50:07;;;;;;;43.33;20.88;;;;;;;-0.33;48.20;102771.21;2141973;81;21577;-80
2022/03/20 00:53:09;;;;;;;40.80;21.33;;;;;;;-0.34;48.16;102765.56;2144076;81;21025;-78
2022/03/20 00:56:12;;;;;;;41.55;21.20;;;;;;;-0.32;48.09;102764.64;2141992;81;21039;-80
2022/03/20 00:59:14;;;;;;;41.53;20.92;;;;;;;-0.31;48.15;102769.41;2146597;81;21013;-79
2022/03/20 01:02:15;;;;;;;43.35;20.95;;;;;;;-0.31;47.99;102761.58;2136552;80;20995;-79
2022/03/20 01:05:16;;;;;;;45.50;21.45;;;;;;;-0.31;48.31;102765.48;2145071;81;21045;-80
2022/03/20 01:08:18;;;;;;;;;;;;;;;-0.32;48.07;102765.09;2086711;84;21604;-81
2022/03/20 01:11:19;;;;;;;43.63;20.25;;;;;;;-0.33;48.04;102762.08;2083213;84;20180;-82
2022/03/20 01:14:20;;;;;;;42.38;22.15;;;;;;;-0.34;48.02;102758.62;2083065;84;21518;-79
2022/03/20 01:17:23;;;;;;;39.53;22.17;;;;;;;-0.31;47.96;102757.66;2082392;83;21057;-80
2022/03/20 01:20:24;;;;;;;47.33;20.77;;;;;;;-0.35;48.08;102754.72;2087489;83;21046;-78
2022/03/20 01:23:26;;;;;;;44.83;22.35;;;;;;;-0.42;48.30;102751.39;2083741;83;21556;-78
2022/03/20 01:26:27;;;;;;;41.25;19.30;;;;;;;-0.47;48.59;102742.34;2089903;83;21095;-78
2022/03/20 01:29:28;;;;;;;40.65;19.95;;;;;;;-0.52;48.73;102745.94;2090585;83;21000;-79
2022/03/20 01:32:30;;;;;;;40.17;21.65;;;;;;;-0.55;49.29;102746.00;2089554;83;21046;-78
2022/03/20 01:35:31;;;;;;;46.77;23.57;;;;;;;-0.60;48.93;102742.63;2095788;83;21059;-78
2022/03/20 01:38:32;;;;;;;49.40;24.07;;;;;;;-0.65;48.88;102744.00;2094039;83;21041;-79
2022/03/20 01:41:33;;;;;;;39.40;19.95;;;;;;;-0.69;48.97;102739.75;2093191;83;21017;-79
2022/03/20 01:44:36;;;;;;;40.05;21.12;;;;;;;-0.71;49.14;102746.73;2092589;83;21063;-80
2022/03/20 01:47:38;;;;;;;45.17;20.68;;;;;;;-0.74;49.18;102745.05;2093905;83;21001;-78
2022/03/20 01:50:39;;;;;;;43.68;20.30;;;;;;;-0.78;49.36;102742.09;2082543;83;22341;-77
2022/03/20 01:53:40;;;;;;;47.03;21.37;;;;;;;-0.84;49.53;102738.77;2083496;83;21008;-77
2022/03/20 01:56:49;;;;;;;44.58;21.77;;;;;;;-0.90;49.65;102748.86;2090368;83;21044;-79
2022/03/20 01:59:52;;;;;;;44.55;23.30;;;;;;;-1.00;50.09;102740.79;2083260;83;20998;-80
2022/03/20 02:02:54;;;;;;;44.50;22.42;;;;;;;-1.07;50.58;102742.66;2084862;83;21087;-79
2022/03/20 02:05:56;;;;;;;51.00;23.40;;;;;;;-1.13;50.87;102738.83;2080639;83;21114;-79
2022/03/20 02:08:57;;;;;;;51.13;22.25;;;;;;;-1.20;50.62;102738.55;2092884;83;21038;-77
2022/03/20 02:12:00;;;;;;;51.50;21.35;;;;;;;-1.27;51.21;102735.16;2085875;83;21549;-78
2022/03/20 02:15:02;;;;;;;34.05;17.82;;;;;;;-1.33;51.53;102729.22;2083037;83;21548;-78
2022/03/20 02:18:06;;;;;;;44.10;22.70;;;;;;;-1.40;51.69;102735.84;2088670;83;21032;-80
2022/03/20 02:21:07;;;;;;;42.35;20.12;;;;;;;-1.44;51.44;102724.19;2088138;83;20978;-77
2022/03/20 02:24:32;;;;;;;;;;;;;;;-1.50;52.35;102725.59;2057482;83;21030;-78
2022/03/20 02:27:34;;;;;;;45.48;22.67;;;;;;;-1.58;52.43;102721.80;2085046;83;20424;-79
2022/03/20 02:30:35;;;;;;;43.63;21.45;;;;;;;-1.68;52.19;102717.66;2083293;83;21559;-79
2022/03/20 02:33:36;;;;;;;49.85;24.67;;;;;;;-1.76;52.67;102719.52;2090202;83;21046;-81
2022/03/20 02:36:37;;;;;;;;;;;;;;;-1.80;52.86;102721.31;2097330;83;21686;-79
2022/03/20 02:39:40;;;;;;;51.15;22.95;;;;;;;-1.85;53.37;102718.77;2081812;83;20167;-80
2022/03/20 02:42:42;;;;;;;50.03;22.73;;;;;;;-1.88;53.20;102720.12;2077532;83;21072;-78
2022/03/20 02:45:43;;;;;;;50.95;23.60;;;;;;;-1.89;53.12;102722.28;2092839;83;21371;-81
2022/03/20 02:48:46;;;;;;;44.38;20.45;;;;;;;-1.88;53.31;102724.47;2086146;83;21017;-77
2022/03/20 02:51:47;;;;;;;42.70;22.50;;;;;;;-1.88;53.56;102725.33;2085774;83;21070;-79
2022/03/20 02:54:48;;;;;;;51.00;23.20;;;;;;;-1.84;53.31;102725.69;2080929;83;20996;-79
2022/03/20 02:57:50;;;;;;;;;;;;;;;-1.82;53.46;102721.77;2087689;83;21067;-77
2022/03/20 03:00:52;;;;;;;47.58;21.77;;;;;;;-1.80;53.66;102729.13;2086001;83;20149;-80
2022/03/20 03:03:53;;;;;;;49.93;22.20;;;;;;;-1.83;53.41;102731.74;2086891;83;20974;-78
2022/03/20 03:06:55;;;;;;;45.58;21.70;;;;;;;-1.83;53.50;102725.23;2084670;83;20994;-77
2022/03/20 03:13:17;;;;;;;51.55;25.50;;;;;;;-1.84;53.78;102724.38;2082776;83;21066;-79
2022/03/20 03:16:19;;;;;;;52.53;24.15;;;;;;;-1.84;53.57;102726.13;2066297;84;21080;-80
2022/03/20 03:19:21;;;;;;;41.92;22.60;;;;;;;-1.87;53.23;102728.34;2067676;85;21026;-80
2022/03/20 03:22:27;;;;;;;42.43;22.52;;;;;;;-1.88;53.24;102741.39;2064964;84;21046;-79
2022/03/20 03:25:28;;;;;;;48.35;23.80;;;;;;;-1.87;53.33;102732.23;2064202;83;21080;-80
2022/03/20 03:28:36;;;;;;;48.68;23.38;;;;;;;-1.90;53.27;102740.55;2051095;84;21010;-76
2022/03/20 03:31:37;;;;;;;48.25;23.52;;;;;;;-1.91;53.12;102745.34;2065135;85;21027;-79
2022/03/20 03:38:01;;;;;;;47.58;24.82;;;;;;;-1.90;53.11;102747.05;2064791;84;21569;-80
2022/03/20 03:41:03;;;;;;;50.65;23.10;;;;;;;-1.94;53.17;102743.64;2070700;85;21030;-79
2022/03/20 03:44:05;;;;;;;49.03;23.77;;;;;;;-1.94;53.29;102748.84;2069060;85;21032;-74
2022/03/20 03:47:06;;;;;;;45.98;22.40;;;;;;;-1.99;53.28;102741.54;2065351;84;21030;-81
2022/03/20 03:50:10;;;;;;;46.13;21.25;;;;;;;-2.01;53.31;102744.59;2071404;85;21061;-78
2022/03/20 03:53:12;;;;;;;50.75;22.90;;;;;;;-2.02;53.79;102746.80;2063191;85;21096;-80
2022/03/20 03:56:13;;;;;;;43.45;23.83;;;;;;;-2.08;53.79;102749.48;2064154;83;21040;-79
2022/03/20 03:59:14;;;;;;;;;;;;;;;-2.10;53.57;102748.19;2065852;85;21059;-80
2022/03/20 04:02:15;;;;;;;50.67;24.25;;;;;;;-2.11;53.61;102745.59;2070343;85;20153;-78
2022/03/20 04:05:20;;;;;;;50.88;24.40;;;;;;;-2.09;53.54;102742.09;2068710;84;21492;-79
2022/03/20 04:08:21;;;;;;;53.20;23.50;;;;;;;-2.07;53.52;102748.59;2069574;84;21040;-78
2022/03/20 04:11:22;;;;;;;53.40;24.05;;;;;;;-2.08;53.43;102741.68;2064463;85;21053;-78
2022/03/20 04:14:24;;;;;;;50.90;23.87;;;;;;;-2.08;53.45;102741.68;2068051;82;21046;-80
2022/03/20 04:17:26;;;;;;;47.88;21.77;;;;;;;-2.13;53.42;102741.73;2067947;84;21030;-79
2022/03/20 04:20:27;;;;;;;56.80;23.38;;;;;;;-2.16;53.46;102743.52;2066437;84;21015;-78
2022/03/20 04:23:46;;;;;;;49.00;23.22;;;;;;;-2.17;53.40;102748.28;2068046;83;21017;-81
2022/03/20 04:26:47;;;;;;;49.95;23.75;;;;;;;-2.17;53.38;102756.09;2064380;84;21548;-77
2022/03/20 04:29:49;;;;;;;42.67;21.90;;;;;;;-2.14;53.33;102749.54;2066133;84;21092;-77
2022/03/20 04:32:51;;;;;;;47.10;23.38;;;;;;;-2.13;53.35;102752.59;2065495;83;21050;-78
2022/03/20 04:35:52;;;;;;;46.42;22.73;;;;;;;-2.11;53.25;102746.89;2065784;83;21034;-78
2022/03/20 04:38:54;;;;;;;;;;;;;;;-2.08;53.24;102755.98;2067422;84;21141;-78
2022/03/20 04:41:56;;;;;;;42.38;21.35;;;;;;;-2.06;53.24;102754.20;2065267;84;21146;-77
2022/03/20 04:44:58;;;;;;;47.60;22.35;;;;;;;-2.04;53.19;102758.95;2070432;84;21535;-78
2022/03/20 05:01:18;;;;;;;46.83;22.98;;;;;;;-2.02;53.14;102766.30;2066459;84;21030;-79
2022/03/20 05:04:19;;;;;;;44.27;21.82;;;;;;;-2.03;53.16;102767.17;2065342;84;21018;-78
2022/03/20 05:07:20;;;;;;;40.58;22.07;;;;;;;-2.06;53.23;102777.62;2064782;84;21026;-80
2022/03/20 05:13:41;;;;;;;47.67;22.60;;;;;;;-2.10;53.27;102782.45;2064534;84;21074;-77
2022/03/20 05:16:43;;;;;;;45.30;21.80;;;;;;;-2.10;53.28;102782.45;2036321;85;21058;-79
2022/03/20 05:19:44;;;;;;;46.63;22.62;;;;;;;-2.09;53.35;102780.27;2043989;85;21639;-79
2022/03/20 05:22:45;;;;;;;;;;;;;;;-1.97;53.37;102788.34;2034672;85;21034;-77
2022/03/20 05:25:47;;;;;;;50.20;22.90;;;;;;;-1.72;53.47;102787.55;2042296;85;20483;-78
2022/03/20 05:28:48;;;;;;;46.23;23.35;;;;;;;-1.44;53.29;102786.23;2038215;85;21600;-78
2022/03/20 05:31:49;;;;;;;43.02;23.15;;;;;;;-1.20;53.09;102783.69;2039822;85;21010;-77
2022/03/20 05:34:51;;;;;;;48.33;23.60;;;;;;;-0.79;52.99;102783.83;2029032;85;21561;-78
2022/03/20 05:37:52;;;;;;;53.40;23.77;;;;;;;-0.40;52.65;102790.47;2037932;85;21565;-80
2022/03/20 05:41:43;;;;;;;45.85;23.20;;;;;;;0.01;52.46;102788.77;2043958;85;21042;-77
2022/03/20 05:43:57;;;;;;;43.55;23.32;;;;;;;0.35;51.95;102797.55;2033632;85;21568;-79
2022/03/20 05:47:00;;;;;;;46.00;24.10;;;;;;;0.62;51.44;102791.23;2039544;85;21014;-79
2022/03/20 05:50:03;;;;;;;48.10;23.85;;;;;;;0.77;51.17;102793.49;2033628;85;21089;-81
2022/03/20 05:53:04;;;;;;;40.92;22.07;;;;;;;0.94;50.76;102800.05;2036460;84;21697;-78
2022/03/20 05:59:25;;;;;;;44.20;21.60;;;;;;;1.13;49.96;102807.84;2042797;85;21022;-77
2022/03/20 06:02:26;;;;;;;43.02;22.55;;;;;;;1.27;49.47;102807.02;2071321;85;21038;-79
2022/03/20 06:05:27;;;;;;;40.23;21.68;;;;;;;1.41;49.37;102803.15;2072110;84;21495;-77
2022/03/20 06:08:29;;;;;;;;;;;;;;;1.54;49.00;102806.70;2042824;85;21043;-79
2022/03/20 06:11:34;;;;;;;42.95;22.48;;;;;;;1.69;49.13;102813.70;2041012;85;20159;-78
2022/03/20 06:14:35;;;;;;;49.20;23.73;;;;;;;1.81;48.91;102809.45;2041103;85;21603;-80
2022/03/20 06:17:45;;;;;;;50.03;23.30;;;;;;;2.01;48.53;102818.02;2045107;85;22137;-81
2022/03/20 06:20:46;;;;;;;44.70;23.18;;;;;;;2.17;48.58;102819.74;2050032;85;21066;-80
2022/03/20 06:23:47;;;;;;;47.35;24.35;;;;;;;2.49;48.25;102817.88;2044528;85;21636;-77
2022/03/20 06:26:49;;;;;;;43.42;22.60;;;;;;;2.66;47.59;102816.42;2046966;85;21023;-80
2022/03/20 06:29:50;;;;;;;47.30;23.07;;;;;;;2.81;47.35;102820.30;2042182;85;21430;-78
2022/03/20 06:32:52;;;;;;;46.13;24.72;;;;;;;2.93;46.59;102816.44;2040726;85;21044;-79
2022/03/20 06:35:54;;;;;;;39.05;21.90;;;;;;;3.08;46.86;102815.05;2047467;85;21098;-78
2022/03/20 06:38:55;;;;;;;44.93;22.45;;;;;;;3.24;45.88;102824.55;2045469;85;21015;-78
2022/03/20 06:41:56;;;;;;;45.35;24.23;;;;;;;3.32;45.94;102822.08;2052312;85;21014;-79
2022/03/20 06:44:59;;;;;;;;;;;;;;;3.55;45.70;102822.57;2054292;85;20991;-81
2022/03/20 06:48:00;;;;;;;42.58;22.50;;;;;;;3.73;45.01;102822.34;2045925;85;20184;-77
2022/03/20 06:51:04;;;;;;;41.10;22.10;;;;;;;3.86;44.77;102825.81;2049032;85;21011;-80
2022/03/20 06:54:06;;;;;;;41.60;25.12;;;;;;;4.00;44.80;102831.44;2040765;85;21018;-81
2022/03/20 06:57:08;;;;;;;44.53;23.85;;;;;;;4.11;45.15;102836.27;2051882;85;21067;-81
2022/03/20 07:00:11;;;;;;;43.52;22.40;;;;;;;4.18;43.67;102833.81;2047132;85;21010;-81
2022/03/20 07:03:15;;;;;;;49.08;24.32;;;;;;;4.19;43.34;102840.30;2043723;85;21114;-79
2022/03/20 07:06:16;;;;;;;42.40;24.70;;;;;;;4.21;43.89;102844.20;2053752;85;21090;-79
2022/03/20 07:09:18;;;;;;;42.73;22.75;;;;;;;4.45;44.02;102839.31;2047614;85;21031;-80
2022/03/20 07:12:19;;;;;;;47.20;24.82;;;;;;;4.61;43.13;102838.22;2052870;85;21062;-81
2022/03/20 07:15:21;;;;;;;43.38;23.30;;;;;;;4.66;43.51;102842.00;2040383;85;21090;-78
2022/03/20 07:18:22;;;;;;;44.73;23.38;;;;;;;4.98;43.08;102843.76;2041886;85;21042;-83
2022/03/20 07:21:24;;;;;;;39.95;22.60;;;;;;;5.24;42.77;102835.63;2042226;85;21027;-79
2022/03/20 07:24:25;;;;;;;41.53;24.23;;;;;;;5.36;42.21;102839.04;2036187;85;20991;-81
2022/03/20 07:30:47;;;;;;;40.83;22.20;;;;;;;5.83;41.62;102836.55;2040746;85;21080;-80
2022/03/20 07:33:49;;;;;;;40.67;23.15;;;;;;;6.00;41.42;102831.86;2042340;85;21050;-79
2022/03/20 07:36:51;;;;;;;39.73;22.73;;;;;;;6.04;40.40;102830.77;2038082;85;21081;-82
2022/03/20 07:39:53;;;;;;;39.35;23.57;;;;;;;5.93;40.10;102835.22;2037061;85;21537;-81
2022/03/20 07:42:55;;;;;;;41.40;22.27;;;;;;;5.99;40.42;102840.20;2039283;85;21046;-80
2022/03/20 07:45:57;;;;;;;39.00;21.52;;;;;;;6.29;40.08;102835.76;2031802;85;21071;-86
2022/03/20 07:49:00;;;;;;;38.98;20.95;;;;;;;6.54;39.61;102833.27;2035948;85;20987;-81
2022/03/20 07:52:01;;;;;;;38.73;22.17;;;;;;;6.91;39.78;102831.84;2038378;85;20976;-79
2022/03/20 07:55:04;;;;;;;38.23;20.05;;;;;;;7.06;39.30;102835.95;2041313;85;21107;-81
2022/03/20 07:58:05;;;;;;;41.92;22.65;;;;;;;7.16;36.35;102833.25;2038721;85;21542;-81
2022/03/20 08:01:07;;;;;;;39.55;21.77;;;;;;;6.97;37.23;102834.64;2047149;85;21006;-82
2022/03/20 08:04:08;;;;;;;35.13;21.25;;;;;;;7.14;37.86;102825.39;2036873;85;21120;-80
2022/03/20 08:07:09;;;;;;;36.35;22.35;;;;;;;7.51;37.15;102827.44;2038387;85;21092;-81
2022/03/20 08:10:13;;;;;;;37.80;22.22;;;;;;;7.70;34.68;102829.13;2041072;85;21003;-82
2022/03/20 08:13:14;;;;;;;39.80;21.87;;;;;;;7.73;36.04;102826.31;2036629;85;21051;-83
2022/03/20 08:16:16;;;;;;;37.17;21.70;;;;;;;7.69;33.99;102820.81;2057262;83;21010;-81
2022/03/20 08:19:19;;;;;;;36.38;21.65;;;;;;;7.76;34.58;102822.18;2068178;84;21068;-84
2022/03/20 08:22:20;;;;;;;36.93;21.77;;;;;;;7.70;32.65;102819.40;2066847;84;21069;-80
2022/03/20 08:25:22;;;;;;;37.50;21.70;;;;;;;7.48;33.40;102821.00;2062277;84;21514;-83
2022/03/20 08:28:23;;;;;;;41.37;22.65;;;;;;;7.67;33.79;102824.00;2070259;83;21015;-81
2022/03/20 08:31:29;;;;;;;37.13;21.33;;;;;;;7.75;32.93;102823.13;2075768;83;21013;-83
2022/03/20 08:34:30;;;;;;;37.73;20.82;;;;;;;7.63;33.24;102820.20;2073265;83;21021;-83
2022/03/20 08:37:34;;;;;;;37.05;22.95;;;;;;;7.74;32.80;102828.00;2062771;84;21011;-81
2022/03/20 08:40:36;;;;;;;36.98;21.25;;;;;;;7.72;32.97;102821.97;2063489;83;21034;-84
2022/03/20 08:43:37;;;;;;;37.28;21.35;;;;;;;8.01;33.60;102831.81;2065221;84;21082;-85
2022/03/20 08:46:39;;;;;;;41.63;22.32;;;;;;;8.28;32.09;102816.69;2060720;84;21098;-83
2022/03/20 08:49:40;;;;;;;40.45;20.95;;;;;;;8.24;31.82;102821.75;2059518;84;20987;-84
2022/03/20 08:52:47;;;;;;;33.95;20.40;;;;;;;8.33;32.55;102825.19;2070998;84;21026;-84
2022/03/20 08:55:49;;;;;;;37.38;20.43;;;;;;;8.60;31.99;102818.85;2063246;84;21072;-86
2022/03/20 08:58:51;;;;;;;31.95;20.37;;;;;;;8.62;30.75;102820.09;2069943;84;21058;-84
2022/03/20 09:01:53;;;;;;;31.27;19.10;;;;;;;8.56;31.66;102813.80;2065780;84;21073;-83
2022/03/20 09:04:54;;;;;;;33.05;20.30;;;;;;;8.66;30.79;102812.34;2066748;84;21549;-82
2022/03/20 09:07:57;;;;;;;34.43;20.95;;;;;;;8.70;31.49;102816.51;2068860;84;21057;-86
2022/03/20 09:10:58;;;;;;;33.58;19.92;;;;;;;8.77;30.64;102807.28;2065449;83;21081;-85
2022/03/20 09:14:00;;;;;;;35.83;20.97;;;;;;;8.87;30.18;102818.17;2074160;84;21610;-85
2022/03/20 09:20:22;;;;;;;31.42;18.75;;;;;;;9.01;29.61;102802.80;2074185;84;21019;-83
2022/03/20 09:23:23;;;;;;;32.50;19.92;;;;;;;9.12;30.42;102806.98;2071707;84;21065;-87
2022/03/20 09:26:25;;;;;;;30.50;18.95;;;;;;;9.27;30.00;102798.14;2069933;84;21561;-86
2022/03/20 09:29:27;;;;;;;29.92;17.90;;;;;;;9.23;30.18;102804.55;2073166;84;21023;-84
2022/03/20 09:32:28;;;;;;;29.98;17.05;;;;;;;9.24;30.09;102795.67;2074047;84;21489;-83
2022/03/20 09:35:29;;;;;;;29.80;18.52;;;;;;;9.38;29.81;102802.31;2069454;84;21099;-84
2022/03/20 09:38:31;;;;;;;27.05;17.48;;;;;;;9.28;29.58;102801.63;2075380;84;21034;-84
2022/03/20 09:41:34;;;;;;;31.95;18.90;;;;;;;9.60;30.03;102796.99;2074263;84;21042;-83
2022/03/20 09:44:39;;;;;;;29.37;19.27;;;;;;;9.85;29.63;102798.97;2067833;84;21534;-83
2022/03/20 09:47:41;;;;;;;34.25;19.27;;;;;;;9.91;29.99;102800.38;2075475;83;21612;-83
2022/03/20 09:50:46;;;;;;;32.60;18.92;;;;;;;10.04;28.94;102795.53;2075438;84;21070;-84
2022/03/20 09:53:47;;;;;;;27.37;17.30;;;;;;;10.21;29.62;102791.79;2052709;84;21047;-84
2022/03/20 09:56:52;;;;;;;33.98;19.92;;;;;;;10.28;28.57;102790.48;2074901;84;21035;-85
2022/03/20 09:59:53;;;;;;;32.70;18.62;;;;;;;10.34;29.29;102791.89;2065868;84;21036;-84
2022/03/20 10:02:56;;;;;;;28.62;19.07;;;;;;;10.57;29.09;102788.20;2070621;84;21051;-84
2022/03/20 10:06:16;;;;;;;27.67;16.73;;;;;;;10.69;28.32;102784.23;2071859;84;20972;-85
2022/03/20 10:09:17;;;;;;;29.33;18.30;;;;;;;10.73;28.38;102794.20;2077148;84;21070;-85
2022/03/20 10:12:34;;;;;;;29.42;17.65;;;;;;;10.84;28.23;102789.47;2075168;84;21034;-84
2022/03/20 10:15:44;;;;;;;27.22;17.32;;;;;;;10.87;27.61;102784.83;2069973;84;21111;-86
2022/03/20 10:18:45;;;;;;;29.57;17.40;;;;;;;10.85;27.46;102777.91;2067427;84;21062;-84
2022/03/20 10:21:47;;;;;;;25.68;16.42;;;;;;;10.87;28.14;102779.52;2063266;84;21041;-83
2022/03/20 10:24:52;;;;;;;26.17;16.62;;;;;;;10.65;27.37;102780.09;2070308;84;21042;-84
2022/03/20 10:27:58;;;;;;;25.25;15.30;;;;;;;10.80;28.13;102792.81;2077041;84;21034;-86
2022/03/20 10:31:01;;;;;;;23.67;15.50;;;;;;;10.85;27.65;102782.73;2047868;84;21067;-83
2022/03/20 10:34:05;;;;;;;22.60;13.93;;;;;;;10.77;26.48;102786.39;2071441;83;21071;-87
2022/03/20 10:37:06;;;;;;;24.07;13.48;;;;;;;10.71;27.00;102781.49;2070092;84;21047;-84
2022/03/20 10:40:11;;;;;;;25.27;15.43;;;;;;;10.94;26.61;102779.94;2069196;84;21076;-84
2022/03/20 10:43:16;;;;;;;25.32;14.23;;;;;;;10.92;27.02;102775.19;2064731;84;21046;-84
2022/03/20 10:46:20;;;;;;;24.67;14.33;;;;;;;11.08;26.70;102765.23;2068732;83;21080;-84
2022/03/20 10:49:22;;;;;;;24.40;15.08;;;;;;;11.13;27.09;102763.11;2058591;84;21601;-83
2022/03/20 10:52:24;;;;;;;22.00;13.00;;;;;;;11.27;26.24;102756.84;2066757;83;21047;-84
2022/03/20 10:55:30;;;;;;;25.65;13.30;;;;;;;11.59;25.77;102734.61;2070975;84;21116;-82
2022/03/20 10:58:31;;;;;;;23.45;13.65;;;;;;;11.75;26.42;102764.96;2057888;83;21034;-84
2022/03/20 11:01:37;;;;;;;19.62;12.30;;;;;;;11.75;26.42;102764.96;2045178;84;21033;-84
2022/03/20 11:04:39;;;;;;;20.95;13.25;;;;;;;11.65;25.57;102754.11;2064362;84;21009;-84
2022/03/20 11:07:40;;;;;;;22.17;12.37;;;;;;;11.57;26.17;102747.19;2062937;84;21127;-85
2022/03/20 11:10:49;;;;;;;16.27;11.35;;;;;;;11.72;26.40;102742.58;2062726;84;21021;-86
2022/03/20 11:13:52;;;;;;;21.05;12.35;;;;;;;11.80;24.90;102742.03;2062938;84;21018;-87
2022/03/20 11:17:13;;;;;;;20.52;12.75;;;;;;;11.72;24.92;102741.73;2046426;83;21124;-87
2022/03/20 11:20:16;;;;;;;20.45;12.05;;;;;;;11.79;24.97;102745.14;2070030;84;21021;-84
2022/03/20 11:23:18;;;;;;;19.37;11.03;;;;;;;11.74;25.33;102734.02;2070981;83;21024;-84
2022/03/20 11:26:21;;;;;;;18.42;12.00;;;;;;;11.79;24.56;102715.04;2082319;84;21071;-83
2022/03/20 11:29:27;;;;;;;20.70;12.63;;;;;;;11.83;24.23;102731.16;2071092;84;21072;-83
2022/03/20 11:32:30;;;;;;;17.73;12.40;;;;;;;11.72;23.40;102718.64;2073532;84;21040;-84
2022/03/20 11:35:34;;;;;;;17.95;11.40;;;;;;;11.61;24.21;102714.57;2076844;84;21044;-82
2022/03/20 11:38:35;;;;;;;15.25;9.80;;;;;;;11.61;24.21;102714.57;2064529;84;21080;-84
2022/03/20 11:41:39;;;;;;;16.02;10.60;;;;;;;11.65;23.50;102712.89;2077705;84;21070;-83
2022/03/20 11:44:51;;;;;;;14.38;9.70;;;;;;;11.77;24.14;102708.52;2081356;84;21061;-83
2022/03/20 11:47:58;;;;;;;18.00;9.65;;;;;;;11.83;23.36;102705.89;2050053;83;21056;-82
2022/03/20 11:51:00;;;;;;;14.25;9.68;;;;;;;12.03;23.66;102702.64;2069544;84;21117;-83
2022/03/20 11:54:04;;;;;;;14.78;9.73;;;;;;;12.07;22.87;102702.77;2073193;83;21006;-83
2022/03/20 11:57:31;;;;;;;14.38;10.25;;;;;;;12.03;23.22;102705.30;2086056;84;21021;-85
2022/03/20 12:00:35;;;;;;;14.63;9.88;;;;;;;12.03;23.49;102699.98;2071130;83;21079;-82
2022/03/20 12:04:04;;;;;;;18.87;9.73;;;;;;;12.16;23.17;102691.91;2081324;84;21038;-82
2022/03/20 12:07:34;;;;;;;15.60;10.23;;;;;;;12.14;23.31;102683.22;2074737;84;21030;-86
2022/03/20 12:10:53;;;;;;;15.78;10.50;;;;;;;11.99;23.04;102678.53;2065682;84;21068;-84
2022/03/20 12:14:39;;;;;;;16.87;10.88;;;;;;;12.09;23.25;102668.91;2071948;84;21115;-85
2022/03/20 12:18:02;;;;;;;17.20;11.33;;;;;;;12.04;22.46;102677.72;2082645;83;21580;-83
2022/03/20 12:21:03;;;;;;;15.78;10.23;;;;;;;12.21;23.36;102664.97;2090428;83;21033;-85
2022/03/20 12:24:26;;;;;;;18.80;10.90;;;;;;;12.43;22.78;102666.38;2082981;83;21006;-85
2022/03/20 12:27:36;;;;;;;17.35;9.75;;;;;;;12.32;22.88;102654.36;2096579;83;21055;-84
2022/03/20 12:30:36;;;;;;;18.52;10.28;;;;;;;12.25;22.30;102646.48;2078468;83;21095;-83
2022/03/20 12:33:38;;;;;;;16.95;10.28;;;;;;;12.12;22.10;102645.22;2089357;83;21068;-86
2022/03/20 12:36:41;;;;;;;15.08;9.80;;;;;;;12.07;21.93;102642.89;2079304;83;21410;-85
2022/03/20 12:39:52;;;;;;;14.43;8.93;;;;;;;11.88;22.32;102654.53;2082780;83;21058;-86
2022/03/20 12:43:08;;;;;;;15.50;8.95;;;;;;;11.86;21.85;102645.84;2075151;83;21450;-84
2022/03/20 12:46:11;;;;;;;16.05;9.43;;;;;;;11.82;21.47;102640.33;2086438;83;21566;-84
2022/03/20 12:49:17;;;;;;;15.50;9.10;;;;;;;11.89;22.00;102641.62;2088381;83;21689;-83
2022/03/20 12:52:19;;;;;;;13.28;9.00;;;;;;;11.86;21.51;102632.54;2079194;83;20990;-84
2022/03/20 12:55:27;;;;;;;14.65;9.85;;;;;;;11.77;21.79;102641.14;2085588;83;21571;-84
2022/03/20 12:58:29;;;;;;;16.52;9.80;;;;;;;11.61;21.70;102623.67;2077215;83;21056;-82
2022/03/20 13:01:38;;;;;;;15.60;9.63;;;;;;;11.64;22.64;102626.10;2091442;83;21093;-83
2022/03/20 13:04:43;;;;;;;14.70;9.20;;;;;;;11.71;22.67;102616.34;2085717;83;21085;-84
2022/03/20 13:07:42;;;;;;;17.23;9.63;;;;;;;11.71;22.44;102621.17;2079035;83;21123;-83
2022/03/20 13:10:44;;;;;;;15.58;10.50;;;;;;;11.69;22.32;102614.30;2078697;83;21021;-84
2022/03/20 13:13:45;;;;;;;16.55;10.40;;;;;;;11.69;22.32;102614.30;2085279;83;21044;-85
2022/03/20 13:16:58;;;;;;;15.48;9.95;;;;;;;11.70;22.56;102613.32;2066073;83;21049;-85
2022/03/20 13:20:05;;;;;;;15.60;10.40;;;;;;;11.58;22.55;102607.10;2036757;85;21070;-82
2022/03/20 13:23:12;;;;;;;18.48;10.72;;;;;;;11.48;22.66;102588.30;2033213;85;21525;-83
2022/03/20 13:26:22;;;;;;;14.90;9.03;;;;;;;11.42;22.38;102606.03;2040482;85;21032;-83
2022/03/20 13:29:23;;;;;;;17.75;11.55;;;;;;;11.42;22.38;102606.03;2037818;85;21558;-83
2022/03/20 13:32:24;;;;;;;17.12;12.43;;;;;;;11.45;23.45;102592.52;2031948;85;21015;-84
2022/03/20 13:35:26;;;;;;;18.62;11.15;;;;;;;11.34;23.51;102585.80;2034189;85;21088;-84
2022/03/20 13:38:41;;;;;;;17.92;11.50;;;;;;;11.22;23.46;102586.22;2027959;85;21070;-86
2022/03/20 13:41:44;;;;;;;18.87;10.88;;;;;;;11.26;23.66;102589.01;2022787;85;21010;-84
2022/03/20 13:44:50;;;;;;;16.25;10.53;;;;;;;11.15;23.48;102576.52;2031172;85;21022;-83
2022/03/20 13:47:52;;;;;;;19.85;11.78;;;;;;;11.03;23.72;102581.85;2038043;85;21083;-84
2022/03/20 13:50:54;;;;;;;18.55;11.88;;;;;;;10.90;24.34;102580.08;2033772;85;21047;-83
2022/03/20 13:54:22;;;;;;;18.25;11.48;;;;;;;10.93;24.53;102574.55;2036799;85;21011;-84
2022/03/20 13:57:24;;;;;;;19.57;12.13;;;;;;;10.92;24.41;102576.81;2046344;85;20990;-83
2022/03/20 14:00:39;;;;;;;18.67;11.93;;;;;;;10.84;24.74;102571.23;2038705;85;21053;-85
2022/03/20 14:03:42;;;;;;;21.17;11.43;;;;;;;10.88;24.67;102575.34;2031290;85;21475;-82
2022/03/20 14:06:54;;;;;;;24.47;11.80;;;;;;;10.94;24.56;102570.08;2040032;85;21521;-83
2022/03/20 14:09:53;;;;;;;18.35;12.20;;;;;;;10.93;24.54;102561.27;2038541;85;21330;-82
2022/03/20 14:13:29;;;;;;;15.78;10.10;;;;;;;11.01;25.14;102540.80;2035239;85;21034;-86
2022/03/20 14:16:32;;;;;;;15.08;8.80;;;;;;;11.14;23.52;102564.66;2034735;84;21554;-83
2022/03/20 14:19:47;;;;;;;11.65;8.28;;;;;;;11.02;23.04;102562.41;2060018;84;21075;-85
2022/03/20 14:22:55;;;;;;;13.72;8.18;;;;;;;10.95;22.99;102555.83;2065853;83;21066;-84
2022/03/20 14:26:00;;;;;;;12.47;8.10;;;;;;;11.00;22.67;102549.70;2062689;83;20991;-85
2022/03/20 14:29:08;;;;;;;12.43;8.35;;;;;;;11.07;22.62;102552.31;2093004;83;21083;-84
2022/03/20 14:39:28;;;;;;;14.58;8.70;;;;;;;11.02;22.54;102547.80;2098854;83;21516;-82
2022/03/20 14:42:34;;;;;;;13.18;8.78;;;;;;;10.98;22.81;102538.34;2108292;82;21462;-84